Carnival Triumph — C6FN5 — position and weather

sailwx.info

Track history (hours):
 
Tides and Currents Weather Stations Pressure Air Temp Water Temp Dewpoint Dewpoint Depression Visibility Wind Speed Wind Dir Waves Ship Positions

Carnival Triumph

Operator: Carnival Cruise Lines

Last reported at 2019-Feb-21 12:01 UTC. Time now 2019-Feb-21 12:07 UTC.
Position N 29°56' W 090°04'.

Type: Passenger vessel. MMSI: 308045000.

Date/timePositionNaut miles runAvg speedWind from/ knotsBaromVisibWave heightAir tempDewpointWater temp
2019-Feb-21 12:01N 29°56' W 090°04'0 0.0
2019-Feb-21 11:31N 29°56' W 090°04'0 0.0
2019-Feb-21 11:00N 29°56' W 090°04'0 0.0
2019-Feb-21 10:30N 29°56' W 090°04'3 6.1
2019-Feb-21 10:00N 29°56' W 090°00'611.3
2019-Feb-21 09:27N 29°53' W 089°54'4 9.1
2019-Feb-21 09:00N 29°52' W 089°59'712.2
2019-Feb-21 08:28N 29°46' W 090°01'24113.8
2019-Feb-20 15:00N 25°48' W 089°18'19818.0 130 / 181011.110.8 23.020.123.0
2019-Feb-20 04:00N 22°30' W 089°18'1412.1 140 / 291009.210.8 26.023.224.0
2019-Feb-20 02:49N 22°16' W 089°22'618.1
2019-Feb-20 02:30N 22°11' W 089°25'918.1
2019-Feb-20 02:00N 22°03' W 089°28'918.1
2019-Feb-20 01:30N 21°54' W 089°31'918.0
2019-Feb-20 01:00N 21°46' W 089°34'6337.6
2019-Feb-20 01:00N 21°42' W 089°30'817.5 120 / 351010.910.8 28.023.924.8
2019-Feb-20 00:30N 21°37' W 089°38'917.3
2019-Feb-20 00:00N 21°29' W 089°41'714.2
2019-Feb-19 23:31N 21°22' W 089°41'2 3.6
2019-Feb-19 22:59N 21°21' W 089°40'0 0.0
2019-Feb-19 22:30N 21°21' W 089°40'0 0.0
2019-Feb-19 21:59N 21°21' W 089°40'0 0.0
2019-Feb-19 21:30N 21°21' W 089°40'0 0.0
2019-Feb-19 21:00N 21°21' W 089°40'0 0.0
2019-Feb-19 20:30N 21°21' W 089°40'0 0.0
2019-Feb-19 19:56N 21°21' W 089°40'0 0.0
2019-Feb-19 19:29N 21°21' W 089°40'0 0.0
2019-Feb-19 18:59N 21°21' W 089°40'0 0.0
2019-Feb-19 18:29N 21°21' W 089°40'0 0.0
2019-Feb-19 17:59N 21°21' W 089°40'0 0.0
2019-Feb-19 17:29N 21°21' W 089°40'0 0.0
2019-Feb-19 16:59N 21°21' W 089°40'0 0.0
2019-Feb-19 16:29N 21°21' W 089°40'0 0.0
2019-Feb-19 15:59N 21°21' W 089°40'0 0.0
2019-Feb-19 15:29N 21°21' W 089°40'0 0.0
2019-Feb-19 15:00N 21°21' W 089°40'1 2.3
2019-Feb-19 14:31N 21°21' W 089°41'612.1
2019-Feb-19 14:01N 21°27' W 089°41'816.4
2019-Feb-19 13:30N 21°34' W 089°36'918.0
2019-Feb-19 13:00N 21°41' W 089°29'1017.9
2019-Feb-19 12:28N 21°44' W 089°19'1326.9
2019-Feb-19 12:00N 21°42' W 089°06'13917.4 140 / 231015.4 5.4 24.019.626.8
2019-Feb-19 04:00N 21°48' W 086°36'6622.1 140 / 321012.610.8 26.023.227.0
2019-Feb-19 01:00N 20°42' W 086°42'711.1 130 / 351013.7 5.4 27.024.326.8
2019-Feb-19 00:23N 20°45' W 086°49'820.0
2019-Feb-19 00:00N 20°39' W 086°53'1019.3
2019-Feb-18 23:31N 20°30' W 086°59'2 3.6
2019-Feb-18 22:58N 20°29' W 086°59'0 0.0
2019-Feb-18 22:28N 20°29' W 086°59'0 0.0
2019-Feb-18 21:58N 20°29' W 086°59'0 0.0
2019-Feb-18 21:28N 20°29' W 086°59'0 0.0
2019-Feb-18 20:58N 20°29' W 086°59'0 0.0
2019-Feb-18 20:28N 20°29' W 086°59'0 0.0
2019-Feb-18 19:58N 20°29' W 086°59'0 0.0
2019-Feb-18 19:28N 20°29' W 086°59'0 0.0
2019-Feb-18 18:58N 20°29' W 086°59'0 0.0
2019-Feb-18 18:25N 20°29' W 086°59'0 0.0
2019-Feb-18 17:58N 20°29' W 086°59'0 0.0
2019-Feb-18 17:28N 20°29' W 086°59'0 0.0
2019-Feb-18 16:58N 20°29' W 086°59'0 0.0
2019-Feb-18 16:28N 20°29' W 086°59'0 0.0
2019-Feb-18 15:58N 20°29' W 086°59'0 0.0
2019-Feb-18 15:25N 20°29' W 086°59'0 0.0
2019-Feb-18 14:58N 20°29' W 086°59'0 0.0
2019-Feb-18 14:28N 20°29' W 086°59'0 0.0
2019-Feb-18 13:58N 20°29' W 086°59'0 0.3
2019-Feb-18 13:30N 20°29' W 086°59'3 6.8
2019-Feb-18 13:00N 20°32' W 086°58'510.4
2019-Feb-18 12:30N 20°36' W 086°55'5114.5
2019-Feb-18 09:00N 21°24' W 086°36'11917.0 160 / 351007.5 5.4 23.018.627.0
2019-Feb-18 02:00N 23°12' W 087°30'6220.7 140 / 301007.610.8 25.022.224.0
2019-Feb-17 23:00N 24°12' W 087°48'14918.6 160 / 351009.710.8 26.023.225.6
2019-Feb-17 15:00N 26°36' W 088°30'20016.3 180 / 311007.210.8 24.019.623.0
2019-Feb-17 02:41N 29°41' W 089°58'313.6
2019-Feb-17 02:30N 29°43' W 089°59'611.8
2019-Feb-17 02:00N 29°49' W 090°00'510.1
2019-Feb-17 01:30N 29°52' W 089°56'4 7.2
2019-Feb-17 01:00N 29°55' W 089°58'510.1
2019-Feb-17 00:29N 29°57' W 090°03'0 0.5
2019-Feb-16 23:59N 29°56' W 090°04'0 0.0
2019-Feb-16 23:29N 29°56' W 090°04'0 0.0
2019-Feb-16 22:59N 29°56' W 090°04'0 0.0
2019-Feb-16 22:29N 29°56' W 090°04'0 0.0
2019-Feb-16 21:59N 29°56' W 090°04'0 0.0
2019-Feb-16 21:26N 29°56' W 090°04'0 0.0
2019-Feb-16 20:59N 29°56' W 090°04'0 0.0
2019-Feb-16 20:29N 29°56' W 090°04'0 0.0
2019-Feb-16 19:56N 29°56' W 090°04'0 0.0
2019-Feb-16 19:26N 29°56' W 090°04'0 0.0
2019-Feb-16 18:59N 29°56' W 090°04'0 0.0
2019-Feb-16 18:29N 29°56' W 090°04'0 0.0
2019-Feb-16 17:59N 29°56' W 090°04'0 0.0
2019-Feb-16 17:29N 29°56' W 090°04'0 0.0
2019-Feb-16 16:59N 29°56' W 090°04'0 0.0
2019-Feb-16 16:29N 29°56' W 090°04'0 0.0
2019-Feb-16 15:59N 29°56' W 090°04'0 0.0
2019-Feb-16 15:29N 29°56' W 090°04'0 0.0
2019-Feb-16 14:59N 29°56' W 090°04'0 0.0
2019-Feb-16 14:29N 29°56' W 090°04'0 0.0
2019-Feb-16 13:59N 29°56' W 090°04'0 0.0
2019-Feb-16 13:29N 29°56' W 090°04'0 0.0
2019-Feb-16 12:59N 29°56' W 090°04'0 0.0
2019-Feb-16 12:29N 29°56' W 090°04'0 0.0
2019-Feb-16 11:59N 29°56' W 090°04'0 0.0
2019-Feb-16 11:30N 29°56' W 090°04'0 0.2
2019-Feb-16 11:00N 29°56' W 090°04'3 6.2
2019-Feb-16 10:30N 29°56' W 090°00'510.2
2019-Feb-16 10:00N 29°54' W 089°55'4 7.0
2019-Feb-16 09:30N 29°53' W 089°58'611.7
2019-Feb-16 09:00N 29°47' W 090°01'911.2
2019-Feb-16 08:14N 29°39' W 089°57'9111.0
2019-Feb-16 00:00N 28°18' W 089°12'14416.0 200 / 151010.310.8 20.015.321.0
2019-Feb-15 15:00N 25°54' W 089°12'3612.0 160 / 91012.010.8 21.018.023.0
2019-Feb-15 12:00N 25°18' W 089°12'19219.2 130 / 231012.710.8 25.022.223.0
2019-Feb-15 02:00N 22°06' W 089°24'1626.4 080 / 171011.510.8 23.020.124.0
2019-Feb-15 01:24N 21°52' W 089°32'717.4
2019-Feb-15 01:00N 21°46' W 089°35'6375.2
2019-Feb-15 01:00N 21°42' W 089°30'817.1 060 / 181013.610.8 23.018.524.6
2019-Feb-15 00:31N 21°38' W 089°38'917.0
2019-Feb-15 00:00N 21°30' W 089°41'713.4
2019-Feb-14 23:31N 21°23' W 089°41'3 5.4
2019-Feb-14 23:00N 21°21' W 089°40'0 0.0
2019-Feb-14 22:30N 21°21' W 089°40'0 0.0
2019-Feb-14 21:42N 21°21' W 089°40'0 0.0
2019-Feb-14 21:18N 21°21' W 089°40'0 0.0
2019-Feb-14 21:00N 21°21' W 089°40'0 0.0
2019-Feb-14 20:30N 21°21' W 089°40'0 0.0
2019-Feb-14 19:57N 21°21' W 089°40'0 0.0
2019-Feb-14 19:30N 21°21' W 089°40'0 0.0
2019-Feb-14 19:00N 21°21' W 089°40'0 0.0
2019-Feb-14 18:27N 21°21' W 089°40'17811.5
2019-Feb-14 03:00N 21°06' W 086°30'2916.4 020 / 251012.810.8 23.020.127.0
2019-Feb-14 01:11N 20°43' W 086°50'420.1
2019-Feb-14 01:00N 20°40' W 086°52'10633.3
2019-Feb-14 01:00N 20°42' W 086°42'1837.3 340 / 301011.910.8 25.022.227.0
2019-Feb-14 00:31N 20°32' W 086°58'3 6.8
2019-Feb-14 00:00N 20°29' W 086°59'0 0.0
2019-Feb-13 23:30N 20°29' W 086°59'0 0.0
2019-Feb-13 23:00N 20°29' W 086°59'0 0.0
2019-Feb-13 22:30N 20°29' W 086°59'0 0.0
2019-Feb-13 22:00N 20°29' W 086°59'0 0.0
2019-Feb-13 21:30N 20°29' W 086°59'0 0.0
2019-Feb-13 21:00N 20°29' W 086°59'0 0.0
2019-Feb-13 20:30N 20°29' W 086°59'0 0.0
2019-Feb-13 19:57N 20°29' W 086°59'0 0.0
2019-Feb-13 19:29N 20°29' W 086°59'0 0.0
2019-Feb-13 18:57N 20°29' W 086°59'0 0.0
2019-Feb-13 18:27N 20°29' W 086°59'0 0.0
2019-Feb-13 18:00N 20°29' W 086°59'0 0.0
2019-Feb-13 17:30N 20°29' W 086°59'0 0.0
2019-Feb-13 17:00N 20°29' W 086°59'0 0.0
2019-Feb-13 16:30N 20°29' W 086°59'0 0.0
2019-Feb-13 16:00N 20°29' W 086°59'0 0.0
2019-Feb-13 15:30N 20°29' W 086°59'0 0.0
2019-Feb-13 15:00N 20°29' W 086°59'0 0.0
2019-Feb-13 14:30N 20°29' W 086°59'0 0.0
2019-Feb-13 14:00N 20°29' W 086°59'0 0.1
2019-Feb-13 13:30N 20°29' W 086°59'4 7.2
2019-Feb-13 13:00N 20°32' W 086°58'612.0
2019-Feb-13 12:31N 20°37' W 086°54'711.9
2019-Feb-13 11:53N 20°43' W 086°50'4314.7
2019-Feb-13 09:00N 21°24' W 086°36'6415.9 140 / 181010.310.8 25.020.722.0
2019-Feb-13 05:00N 22°18' W 087°12'11118.6 100 / 91012.510.8 24.021.125.0
2019-Feb-12 23:00N 24°06' W 087°42'13717.2 200 / 161009.410.8 25.022.225.3
2019-Feb-12 15:00N 26°18' W 088°24'3215.9 220 / 101013.010.8 23.020.122.0
2019-Feb-12 13:00N 26°48' W 088°36'18415.8 200 / 141011.710.8 22.019.022.6
2019-Feb-12 01:21N 29°38' W 089°56'411.7
2019-Feb-12 00:59N 29°42' W 089°58'713.5
2019-Feb-12 00:29N 29°48' W 090°00'611.4
2019-Feb-12 00:00N 29°52' W 089°56'4 7.9
2019-Feb-11 23:30N 29°55' W 089°58'5 9.4
2019-Feb-11 23:00N 29°56' W 090°04'0 0.2
2019-Feb-11 22:28N 29°56' W 090°04'0 0.0
2019-Feb-11 21:59N 29°56' W 090°04'0 0.0
2019-Feb-11 21:29N 29°56' W 090°04'0 0.0
2019-Feb-11 20:59N 29°56' W 090°04'0 0.0
2019-Feb-11 20:25N 29°56' W 090°04'0 0.0
2019-Feb-11 19:58N 29°56' W 090°04'0 0.0
2019-Feb-11 19:29N 29°56' W 090°04'0 0.0
2019-Feb-11 18:59N 29°56' W 090°04'0 0.0
2019-Feb-11 18:29N 29°56' W 090°04'0 0.0
2019-Feb-11 17:59N 29°56' W 090°04'0 0.0
2019-Feb-11 17:29N 29°56' W 090°04'0 0.0
2019-Feb-11 16:59N 29°56' W 090°04'0 0.0
2019-Feb-11 16:29N 29°56' W 090°04'0 0.0
2019-Feb-11 15:59N 29°56' W 090°04'0 0.0
2019-Feb-11 15:30N 29°56' W 090°04'0 0.0
2019-Feb-11 14:59N 29°56' W 090°04'0 0.0
2019-Feb-11 14:29N 29°56' W 090°04'0 0.0
2019-Feb-11 13:59N 29°56' W 090°04'0 0.0
2019-Feb-11 13:29N 29°56' W 090°04'0 0.0
2019-Feb-11 12:59N 29°56' W 090°04'0 0.0
2019-Feb-11 12:29N 29°56' W 090°04'  
Track history (hours):
 
Tides and Currents Weather Stations Pressure Air Temp Water Temp Dewpoint Dewpoint Depression Visibility Wind Speed Wind Dir Waves Ship Positions

Carnival Triumph

Operator: Carnival Cruise Lines

Last reported at 2019-Feb-21 12:01 UTC. Time now 2019-Feb-21 12:07 UTC.
Position N 29°56' W 090°04'.

Type: Passenger vessel. MMSI: 308045000.

Date/timePositionNaut miles runAvg speedWind from/ knotsBaromVisibWave heightAir tempDewpointWater temp
2019-Feb-21 12:01N 29°56' W 090°04'0 0.0
2019-Feb-21 11:31N 29°56' W 090°04'0 0.0
2019-Feb-21 11:00N 29°56' W 090°04'0 0.0
2019-Feb-21 10:30N 29°56' W 090°04'3 6.1
2019-Feb-21 10:00N 29°56' W 090°00'611.3
2019-Feb-21 09:27N 29°53' W 089°54'4 9.1
2019-Feb-21 09:00N 29°52' W 089°59'712.2
2019-Feb-21 08:28N 29°46' W 090°01'24113.8
2019-Feb-20 15:00N 25°48' W 089°18'19818.0 130 / 181011.110.8 23.020.123.0
2019-Feb-20 04:00N 22°30' W 089°18'1412.1 140 / 291009.210.8 26.023.224.0
2019-Feb-20 02:49N 22°16' W 089°22'618.1
2019-Feb-20 02:30N 22°11' W 089°25'918.1
2019-Feb-20 02:00N 22°03' W 089°28'918.1
2019-Feb-20 01:30N 21°54' W 089°31'918.0
2019-Feb-20 01:00N 21°46' W 089°34'6337.6
2019-Feb-20 01:00N 21°42' W 089°30'817.5 120 / 351010.910.8 28.023.924.8
2019-Feb-20 00:30N 21°37' W 089°38'917.3
2019-Feb-20 00:00N 21°29' W 089°41'714.2
2019-Feb-19 23:31N 21°22' W 089°41'2 3.6
2019-Feb-19 22:59N 21°21' W 089°40'0 0.0
2019-Feb-19 22:30N 21°21' W 089°40'0 0.0
2019-Feb-19 21:59N 21°21' W 089°40'0 0.0
2019-Feb-19 21:30N 21°21' W 089°40'0 0.0
2019-Feb-19 21:00N 21°21' W 089°40'0 0.0
2019-Feb-19 20:30N 21°21' W 089°40'0 0.0
2019-Feb-19 19:56N 21°21' W 089°40'0 0.0
2019-Feb-19 19:29N 21°21' W 089°40'0 0.0
2019-Feb-19 18:59N 21°21' W 089°40'0 0.0
2019-Feb-19 18:29N 21°21' W 089°40'0 0.0
2019-Feb-19 17:59N 21°21' W 089°40'0 0.0
2019-Feb-19 17:29N 21°21' W 089°40'0 0.0
2019-Feb-19 16:59N 21°21' W 089°40'0 0.0
2019-Feb-19 16:29N 21°21' W 089°40'0 0.0
2019-Feb-19 15:59N 21°21' W 089°40'0 0.0
2019-Feb-19 15:29N 21°21' W 089°40'0 0.0
2019-Feb-19 15:00N 21°21' W 089°40'1 2.3
2019-Feb-19 14:31N 21°21' W 089°41'612.1
2019-Feb-19 14:01N 21°27' W 089°41'816.4
2019-Feb-19 13:30N 21°34' W 089°36'918.0
2019-Feb-19 13:00N 21°41' W 089°29'1017.9
2019-Feb-19 12:28N 21°44' W 089°19'1326.9
2019-Feb-19 12:00N 21°42' W 089°06'13917.4 140 / 231015.4 5.4 24.019.626.8
2019-Feb-19 04:00N 21°48' W 086°36'6622.1 140 / 321012.610.8 26.023.227.0
2019-Feb-19 01:00N 20°42' W 086°42'711.1 130 / 351013.7 5.4 27.024.326.8
2019-Feb-19 00:23N 20°45' W 086°49'820.0
2019-Feb-19 00:00N 20°39' W 086°53'1019.3
2019-Feb-18 23:31N 20°30' W 086°59'2 3.6
2019-Feb-18 22:58N 20°29' W 086°59'0 0.0
2019-Feb-18 22:28N 20°29' W 086°59'0 0.0
2019-Feb-18 21:58N 20°29' W 086°59'0 0.0
2019-Feb-18 21:28N 20°29' W 086°59'0 0.0
2019-Feb-18 20:58N 20°29' W 086°59'0 0.0
2019-Feb-18 20:28N 20°29' W 086°59'0 0.0
2019-Feb-18 19:58N 20°29' W 086°59'0 0.0
2019-Feb-18 19:28N 20°29' W 086°59'0 0.0
2019-Feb-18 18:58N 20°29' W 086°59'0 0.0
2019-Feb-18 18:25N 20°29' W 086°59'0 0.0
2019-Feb-18 17:58N 20°29' W 086°59'0 0.0
2019-Feb-18 17:28N 20°29' W 086°59'0 0.0
2019-Feb-18 16:58N 20°29' W 086°59'0 0.0
2019-Feb-18 16:28N 20°29' W 086°59'0 0.0
2019-Feb-18 15:58N 20°29' W 086°59'0 0.0
2019-Feb-18 15:25N 20°29' W 086°59'0 0.0
2019-Feb-18 14:58N 20°29' W 086°59'0 0.0
2019-Feb-18 14:28N 20°29' W 086°59'0 0.0
2019-Feb-18 13:58N 20°29' W 086°59'0 0.3
2019-Feb-18 13:30N 20°29' W 086°59'3 6.8
2019-Feb-18 13:00N 20°32' W 086°58'510.4
2019-Feb-18 12:30N 20°36' W 086°55'5114.5
2019-Feb-18 09:00N 21°24' W 086°36'11917.0 160 / 351007.5 5.4 23.018.627.0
2019-Feb-18 02:00N 23°12' W 087°30'6220.7 140 / 301007.610.8 25.022.224.0
2019-Feb-17 23:00N 24°12' W 087°48'14918.6 160 / 351009.710.8 26.023.225.6
2019-Feb-17 15:00N 26°36' W 088°30'20016.3 180 / 311007.210.8 24.019.623.0
2019-Feb-17 02:41N 29°41' W 089°58'313.6
2019-Feb-17 02:30N 29°43' W 089°59'611.8
2019-Feb-17 02:00N 29°49' W 090°00'510.1
2019-Feb-17 01:30N 29°52' W 089°56'4 7.2
2019-Feb-17 01:00N 29°55' W 089°58'510.1
2019-Feb-17 00:29N 29°57' W 090°03'0 0.5
2019-Feb-16 23:59N 29°56' W 090°04'0 0.0
2019-Feb-16 23:29N 29°56' W 090°04'0 0.0
2019-Feb-16 22:59N 29°56' W 090°04'0 0.0
2019-Feb-16 22:29N 29°56' W 090°04'0 0.0
2019-Feb-16 21:59N 29°56' W 090°04'0 0.0
2019-Feb-16 21:26N 29°56' W 090°04'0 0.0
2019-Feb-16 20:59N 29°56' W 090°04'0 0.0
2019-Feb-16 20:29N 29°56' W 090°04'0 0.0
2019-Feb-16 19:56N 29°56' W 090°04'0 0.0
2019-Feb-16 19:26N 29°56' W 090°04'0 0.0
2019-Feb-16 18:59N 29°56' W 090°04'0 0.0
2019-Feb-16 18:29N 29°56' W 090°04'0 0.0
2019-Feb-16 17:59N 29°56' W 090°04'0 0.0
2019-Feb-16 17:29N 29°56' W 090°04'0 0.0
2019-Feb-16 16:59N 29°56' W 090°04'0 0.0
2019-Feb-16 16:29N 29°56' W 090°04'0 0.0
2019-Feb-16 15:59N 29°56' W 090°04'0 0.0
2019-Feb-16 15:29N 29°56' W 090°04'0 0.0
2019-Feb-16 14:59N 29°56' W 090°04'0 0.0
2019-Feb-16 14:29N 29°56' W 090°04'0 0.0
2019-Feb-16 13:59N 29°56' W 090°04'0 0.0
2019-Feb-16 13:29N 29°56' W 090°04'0 0.0
2019-Feb-16 12:59N 29°56' W 090°04'0 0.0
2019-Feb-16 12:29N 29°56' W 090°04'0 0.0
2019-Feb-16 11:59N 29°56' W 090°04'0 0.0
2019-Feb-16 11:30N 29°56' W 090°04'0 0.2
2019-Feb-16 11:00N 29°56' W 090°04'3 6.2
2019-Feb-16 10:30N 29°56' W 090°00'510.2
2019-Feb-16 10:00N 29°54' W 089°55'4 7.0
2019-Feb-16 09:30N 29°53' W 089°58'611.7
2019-Feb-16 09:00N 29°47' W 090°01'911.2
2019-Feb-16 08:14N 29°39' W 089°57'9111.0
2019-Feb-16 00:00N 28°18' W 089°12'14416.0 200 / 151010.310.8 20.015.321.0
2019-Feb-15 15:00N 25°54' W 089°12'3612.0 160 / 91012.010.8 21.018.023.0
2019-Feb-15 12:00N 25°18' W 089°12'19219.2 130 / 231012.710.8 25.022.223.0
2019-Feb-15 02:00N 22°06' W 089°24'1626.4 080 / 171011.510.8 23.020.124.0
2019-Feb-15 01:24N 21°52' W 089°32'717.4
2019-Feb-15 01:00N 21°46' W 089°35'6375.2
2019-Feb-15 01:00N 21°42' W 089°30'817.1 060 / 181013.610.8 23.018.524.6
2019-Feb-15 00:31N 21°38' W 089°38'917.0
2019-Feb-15 00:00N 21°30' W 089°41'713.4
2019-Feb-14 23:31N 21°23' W 089°41'3 5.4
2019-Feb-14 23:00N 21°21' W 089°40'0 0.0
2019-Feb-14 22:30N 21°21' W 089°40'0 0.0
2019-Feb-14 21:42N 21°21' W 089°40'0 0.0
2019-Feb-14 21:18N 21°21' W 089°40'0 0.0
2019-Feb-14 21:00N 21°21' W 089°40'0 0.0
2019-Feb-14 20:30N 21°21' W 089°40'0 0.0
2019-Feb-14 19:57N 21°21' W 089°40'0 0.0
2019-Feb-14 19:30N 21°21' W 089°40'0 0.0
2019-Feb-14 19:00N 21°21' W 089°40'0 0.0
2019-Feb-14 18:27N 21°21' W 089°40'17811.5
2019-Feb-14 03:00N 21°06' W 086°30'2916.4 020 / 251012.810.8 23.020.127.0
2019-Feb-14 01:11N 20°43' W 086°50'420.1
2019-Feb-14 01:00N 20°40' W 086°52'10633.3
2019-Feb-14 01:00N 20°42' W 086°42'1837.3 340 / 301011.910.8 25.022.227.0
2019-Feb-14 00:31N 20°32' W 086°58'3 6.8
2019-Feb-14 00:00N 20°29' W 086°59'0 0.0
2019-Feb-13 23:30N 20°29' W 086°59'0 0.0
2019-Feb-13 23:00N 20°29' W 086°59'0 0.0
2019-Feb-13 22:30N 20°29' W 086°59'0 0.0
2019-Feb-13 22:00N 20°29' W 086°59'0 0.0
2019-Feb-13 21:30N 20°29' W 086°59'0 0.0
2019-Feb-13 21:00N 20°29' W 086°59'0 0.0
2019-Feb-13 20:30N 20°29' W 086°59'0 0.0
2019-Feb-13 19:57N 20°29' W 086°59'0 0.0
2019-Feb-13 19:29N 20°29' W 086°59'0 0.0
2019-Feb-13 18:57N 20°29' W 086°59'0 0.0
2019-Feb-13 18:27N 20°29' W 086°59'0 0.0
2019-Feb-13 18:00N 20°29' W 086°59'0 0.0
2019-Feb-13 17:30N 20°29' W 086°59'0 0.0
2019-Feb-13 17:00N 20°29' W 086°59'0 0.0
2019-Feb-13 16:30N 20°29' W 086°59'0 0.0
2019-Feb-13 16:00N 20°29' W 086°59'0 0.0
2019-Feb-13 15:30N 20°29' W 086°59'0 0.0
2019-Feb-13 15:00N 20°29' W 086°59'0 0.0
2019-Feb-13 14:30N 20°29' W 086°59'0 0.0
2019-Feb-13 14:00N 20°29' W 086°59'0 0.1
2019-Feb-13 13:30N 20°29' W 086°59'4 7.2
2019-Feb-13 13:00N 20°32' W 086°58'612.0
2019-Feb-13 12:31N 20°37' W 086°54'711.9
2019-Feb-13 11:53N 20°43' W 086°50'4314.7
2019-Feb-13 09:00N 21°24' W 086°36'6415.9 140 / 181010.310.8 25.020.722.0
2019-Feb-13 05:00N 22°18' W 087°12'11118.6 100 / 91012.510.8 24.021.125.0
2019-Feb-12 23:00N 24°06' W 087°42'13717.2 200 / 161009.410.8 25.022.225.3
2019-Feb-12 15:00N 26°18' W 088°24'3215.9 220 / 101013.010.8 23.020.122.0
2019-Feb-12 13:00N 26°48' W 088°36'18415.8 200 / 141011.710.8 22.019.022.6
2019-Feb-12 01:21N 29°38' W 089°56'411.7
2019-Feb-12 00:59N 29°42' W 089°58'713.5
2019-Feb-12 00:29N 29°48' W 090°00'611.4
2019-Feb-12 00:00N 29°52' W 089°56'4 7.9
2019-Feb-11 23:30N 29°55' W 089°58'5 9.4
2019-Feb-11 23:00N 29°56' W 090°04'0 0.2
2019-Feb-11 22:28N 29°56' W 090°04'0 0.0
2019-Feb-11 21:59N 29°56' W 090°04'0 0.0
2019-Feb-11 21:29N 29°56' W 090°04'0 0.0
2019-Feb-11 20:59N 29°56' W 090°04'0 0.0
2019-Feb-11 20:25N 29°56' W 090°04'0 0.0
2019-Feb-11 19:58N 29°56' W 090°04'0 0.0
2019-Feb-11 19:29N 29°56' W 090°04'0 0.0
2019-Feb-11 18:59N 29°56' W 090°04'0 0.0
2019-Feb-11 18:29N 29°56' W 090°04'0 0.0
2019-Feb-11 17:59N 29°56' W 090°04'0 0.0
2019-Feb-11 17:29N 29°56' W 090°04'0 0.0
2019-Feb-11 16:59N 29°56' W 090°04'0 0.0
2019-Feb-11 16:29N 29°56' W 090°04'0 0.0
2019-Feb-11 15:59N 29°56' W 090°04'0 0.0
2019-Feb-11 15:30N 29°56' W 090°04'0 0.0
2019-Feb-11 14:59N 29°56' W 090°04'0 0.0
2019-Feb-11 14:29N 29°56' W 090°04'0 0.0
2019-Feb-11 13:59N 29°56' W 090°04'0 0.0
2019-Feb-11 13:29N 29°56' W 090°04'0 0.0
2019-Feb-11 12:59N 29°56' W 090°04'0 0.0
2019-Feb-11 12:29N 29°56' W 090°04'  

Dump ship's entire track history